首页
METAR-TAF:

METAR-TAF

机场 :

Marshalltown Municipal Airport

Marshalltown, 艾奥瓦州, 美国

纬度: 42-06-38N, 经度: 092-54-58W, 海拔: 296米

当前天气观测

该预报发布于51分钟前的07:53 UTC
风速5节,风向西转西北
温度 -14°C
湿度 78%
气压 1019 hPa
能見度: 16.1公里
散云层高于8500英尺

METAR: KMIW 100753Z AUTO 29005KT 10SM SCT085 M14/M17 A3008 RMK AO2 SLP206 T11441172 $

时间: 02:44 (08:44 UTC)


TAF: 丢失

超过4000个机场的气象观测和天气预报(METAR&TAF报告)。

可查询的气象台以黄色和红色小点在地图上表示。

将鼠标移到小点上方,可查看气象台名称。

然后点击查看天气观测和预报。

如需切换地图:点击带黑十字的绿色按钮放大地图;点击带横线的绿色按钮缩小地图;或者点击绿色箭头查看邻近地区的地图。


METAR-TAF: